sensor_id;sensor_type;location;lat;lon;timestamp;temperature;humidity
13164;DHT22;6647;53.688;10.746;2022-08-19T00:00:40;20.20;1.00
13164;DHT22;6647;53.688;10.746;2022-08-19T00:02:01;20.20;1.00
13164;DHT22;6647;53.688;10.746;2022-08-19T00:03:22;20.10;1.00
13164;DHT22;6647;53.688;10.746;2022-08-19T00:04:43;20.10;1.00
13164;DHT22;6647;53.688;10.746;2022-08-19T00:06:07;20.10;1.00
13164;DHT22;6647;53.688;10.746;2022-08-19T00:07:28;20.10;1.00
13164;DHT22;6647;53.688;10.746;2022-08-19T00:08:48;20.00;1.00
13164;DHT22;6647;53.688;10.746;2022-08-19T00:10:14;20.00;1.00
13164;DHT22;6647;53.688;10.746;2022-08-19T00:11:35;20.00;1.00
13164;DHT22;6647;53.688;10.746;2022-08-19T00:12:57;20.00;1.00
13164;DHT22;6647;53.688;10.746;2022-08-19T00:14:18;19.90;1.00
13164;DHT22;6647;53.688;10.746;2022-08-19T00:15:39;19.80;1.00
13164;DHT22;6647;53.688;10.746;2022-08-19T00:17:00;19.80;1.00
13164;DHT22;6647;53.688;10.746;2022-08-19T00:18:23;19.70;1.00
13164;DHT22;6647;53.688;10.746;2022-08-19T00:19:43;19.70;1.00
13164;DHT22;6647;53.688;10.746;2022-08-19T00:21:04;19.60;1.00
13164;DHT22;6647;53.688;10.746;2022-08-19T00:22:28;19.60;1.00
13164;DHT22;6647;53.688;10.746;2022-08-19T00:23:49;19.60;1.00
13164;DHT22;6647;53.688;10.746;2022-08-19T00:25:10;19.60;1.00
13164;DHT22;6647;53.688;10.746;2022-08-19T00:26:31;19.60;1.00
13164;DHT22;6647;53.688;10.746;2022-08-19T00:27:52;19.60;1.00
13164;DHT22;6647;53.688;10.746;2022-08-19T00:29:15;19.60;1.00
13164;DHT22;6647;53.688;10.746;2022-08-19T00:30:37;19.50;1.00
13164;DHT22;6647;53.688;10.746;2022-08-19T00:31:58;19.50;1.00
13164;DHT22;6647;53.688;10.746;2022-08-19T00:33:20;19.60;1.00
13164;DHT22;6647;53.688;10.746;2022-08-19T00:34:41;19.60;1.00
13164;DHT22;6647;53.688;10.746;2022-08-19T00:36:06;19.50;1.00
13164;DHT22;6647;53.688;10.746;2022-08-19T00:37:27;19.50;1.00
13164;DHT22;6647;53.688;10.746;2022-08-19T00:38:48;19.50;1.00
13164;DHT22;6647;53.688;10.746;2022-08-19T00:40:12;19.50;1.00
13164;DHT22;6647;53.688;10.746;2022-08-19T00:41:33;19.50;1.00
13164;DHT22;6647;53.688;10.746;2022-08-19T00:42:54;19.50;1.00
13164;DHT22;6647;53.688;10.746;2022-08-19T00:44:22;19.50;1.00
13164;DHT22;6647;53.688;10.746;2022-08-19T00:45:43;19.50;1.00
13164;DHT22;6647;53.688;10.746;2022-08-19T00:47:04;19.50;1.00
13164;DHT22;6647;53.688;10.746;2022-08-19T00:48:26;19.50;1.00
13164;DHT22;6647;53.688;10.746;2022-08-19T00:49:47;19.50;1.00
13164;DHT22;6647;53.688;10.746;2022-08-19T00:51:11;19.40;1.00
13164;DHT22;6647;53.688;10.746;2022-08-19T00:52:37;19.40;1.00
13164;DHT22;6647;53.688;10.746;2022-08-19T00:54:00;19.30;1.00
13164;DHT22;6647;53.688;10.746;2022-08-19T00:55:25;19.30;1.00
13164;DHT22;6647;53.688;10.746;2022-08-19T00:56:49;19.40;1.00
13164;DHT22;6647;53.688;10.746;2022-08-19T00:58:14;19.30;1.00
13164;DHT22;6647;53.688;10.746;2022-08-19T00:59:37;19.40;1.00
13164;DHT22;6647;53.688;10.746;2022-08-19T01:01:00;19.40;1.00
13164;DHT22;6647;53.688;10.746;2022-08-19T01:02:21;19.30;1.00
13164;DHT22;6647;53.688;10.746;2022-08-19T01:03:42;19.30;1.00
13164;DHT22;6647;53.688;10.746;2022-08-19T01:05:06;19.30;1.00
13164;DHT22;6647;53.688;10.746;2022-08-19T01:06:28;19.40;1.00
13164;DHT22;6647;53.688;10.746;2022-08-19T01:07:53;19.40;1.00
13164;DHT22;6647;53.688;10.746;2022-08-19T01:09:14;19.40;1.00
13164;DHT22;6647;53.688;10.746;2022-08-19T01:10:53;19.40;1.00
13164;DHT22;6647;53.688;10.746;2022-08-19T01:12:15;19.40;1.00
13164;DHT22;6647;53.688;10.746;2022-08-19T01:13:36;19.40;1.00
13164;DHT22;6647;53.688;10.746;2022-08-19T01:14:58;19.40;1.00
13164;DHT22;6647;53.688;10.746;2022-08-19T01:16:22;19.40;1.00
13164;DHT22;6647;53.688;10.746;2022-08-19T01:17:44;19.40;1.00
13164;DHT22;6647;53.688;10.746;2022-08-19T01:19:21;19.40;1.00
13164;DHT22;6647;53.688;10.746;2022-08-19T01:20:46;19.40;1.00
13164;DHT22;6647;53.688;10.746;2022-08-19T01:22:35;19.40;1.00
13164;DHT22;6647;53.688;10.746;2022-08-19T01:24:00;19.40;1.00
13164;DHT22;6647;53.688;10.746;2022-08-19T01:25:38;19.30;1.00
13164;DHT22;6647;53.688;10.746;2022-08-19T01:27:04;19.40;1.00
13164;DHT22;6647;53.688;10.746;2022-08-19T01:28:27;19.40;1.00
13164;DHT22;6647;53.688;10.746;2022-08-19T01:29:48;19.40;1.00
13164;DHT22;6647;53.688;10.746;2022-08-19T01:31:25;19.40;1.00
13164;DHT22;6647;53.688;10.746;2022-08-19T01:32:46;19.30;1.00
13164;DHT22;6647;53.688;10.746;2022-08-19T01:34:07;19.30;1.00
13164;DHT22;6647;53.688;10.746;2022-08-19T01:35:29;19.30;1.00
13164;DHT22;6647;53.688;10.746;2022-08-19T01:36:52;19.40;1.00
13164;DHT22;6647;53.688;10.746;2022-08-19T01:38:24;19.40;1.00
13164;DHT22;6647;53.688;10.746;2022-08-19T01:39:45;19.40;1.00
13164;DHT22;6647;53.688;10.746;2022-08-19T01:41:06;19.40;1.00
13164;DHT22;6647;53.688;10.746;2022-08-19T01:42:27;19.30;1.00
13164;DHT22;6647;53.688;10.746;2022-08-19T01:43:49;19.40;1.00
13164;DHT22;6647;53.688;10.746;2022-08-19T01:45:10;19.30;1.00
13164;DHT22;6647;53.688;10.746;2022-08-19T01:46:31;19.30;1.00
13164;DHT22;6647;53.688;10.746;2022-08-19T01:47:52;19.30;1.00
13164;DHT22;6647;53.688;10.746;2022-08-19T01:49:13;19.30;1.00
13164;DHT22;6647;53.688;10.746;2022-08-19T01:50:35;19.30;1.00
13164;DHT22;6647;53.688;10.746;2022-08-19T01:51:56;19.30;1.00
13164;DHT22;6647;53.688;10.746;2022-08-19T01:53:18;19.30;1.00
13164;DHT22;6647;53.688;10.746;2022-08-19T01:54:38;19.30;1.00
13164;DHT22;6647;53.688;10.746;2022-08-19T01:56:00;19.40;1.00
13164;DHT22;6647;53.688;10.746;2022-08-19T01:57:21;19.40;1.00
13164;DHT22;6647;53.688;10.746;2022-08-19T01:58:48;19.40;1.00
13164;DHT22;6647;53.688;10.746;2022-08-19T02:00:14;19.30;1.00
13164;DHT22;6647;53.688;10.746;2022-08-19T02:01:36;19.30;1.00
13164;DHT22;6647;53.688;10.746;2022-08-19T02:02:57;19.40;1.00
13164;DHT22;6647;53.688;10.746;2022-08-19T02:04:18;19.40;1.00
13164;DHT22;6647;53.688;10.746;2022-08-19T02:05:40;19.40;1.00
13164;DHT22;6647;53.688;10.746;2022-08-19T02:07:01;19.40;1.00
13164;DHT22;6647;53.688;10.746;2022-08-19T02:08:23;19.30;1.00
13164;DHT22;6647;53.688;10.746;2022-08-19T02:09:44;19.40;1.00
13164;DHT22;6647;53.688;10.746;2022-08-19T02:11:06;19.40;1.00
13164;DHT22;6647;53.688;10.746;2022-08-19T02:12:27;19.30;1.00
13164;DHT22;6647;53.688;10.746;2022-08-19T02:13:48;19.30;1.00
13164;DHT22;6647;53.688;10.746;2022-08-19T02:15:10;19.30;1.00
13164;DHT22;6647;53.688;10.746;2022-08-19T02:16:31;19.30;1.00
13164;DHT22;6647;53.688;10.746;2022-08-19T02:17:53;19.30;1.00
13164;DHT22;6647;53.688;10.746;2022-08-19T02:19:13;19.30;1.00
13164;DHT22;6647;53.688;10.746;2022-08-19T02:20:35;19.30;1.00
13164;DHT22;6647;53.688;10.746;2022-08-19T02:21:56;19.40;1.00
13164;DHT22;6647;53.688;10.746;2022-08-19T02:23:17;19.40;1.00
13164;DHT22;6647;53.688;10.746;2022-08-19T02:24:38;19.40;1.00
13164;DHT22;6647;53.688;10.746;2022-08-19T02:25:59;19.40;1.00
13164;DHT22;6647;53.688;10.746;2022-08-19T02:27:21;19.50;1.00
13164;DHT22;6647;53.688;10.746;2022-08-19T02:28:42;19.40;1.00
13164;DHT22;6647;53.688;10.746;2022-08-19T02:30:05;19.40;1.00
13164;DHT22;6647;53.688;10.746;2022-08-19T02:31:27;19.40;1.00
13164;DHT22;6647;53.688;10.746;2022-08-19T02:32:52;19.40;1.00
13164;DHT22;6647;53.688;10.746;2022-08-19T02:34:12;19.40;1.00
13164;DHT22;6647;53.688;10.746;2022-08-19T02:35:33;19.40;1.00
13164;DHT22;6647;53.688;10.746;2022-08-19T02:36:54;19.30;1.00
13164;DHT22;6647;53.688;10.746;2022-08-19T02:38:15;19.40;1.00
13164;DHT22;6647;53.688;10.746;2022-08-19T02:39:48;19.40;1.00
13164;DHT22;6647;53.688;10.746;2022-08-19T02:41:30;19.40;1.00
13164;DHT22;6647;53.688;10.746;2022-08-19T02:42:51;19.40;1.00
13164;DHT22;6647;53.688;10.746;2022-08-19T02:44:12;19.40;1.00
13164;DHT22;6647;53.688;10.746;2022-08-19T02:45:34;19.40;1.00
13164;DHT22;6647;53.688;10.746;2022-08-19T02:46:55;19.40;1.00
13164;DHT22;6647;53.688;10.746;2022-08-19T02:48:18;19.50;1.00
13164;DHT22;6647;53.688;10.746;2022-08-19T02:49:40;19.50;1.00
13164;DHT22;6647;53.688;10.746;2022-08-19T02:51:01;19.50;1.00
13164;DHT22;6647;53.688;10.746;2022-08-19T02:52:22;19.50;1.00
13164;DHT22;6647;53.688;10.746;2022-08-19T02:53:43;19.50;1.00
13164;DHT22;6647;53.688;10.746;2022-08-19T02:55:05;19.60;1.00
13164;DHT22;6647;53.688;10.746;2022-08-19T02:56:27;19.60;1.00
13164;DHT22;6647;53.688;10.746;2022-08-19T02:57:48;19.60;1.00
13164;DHT22;6647;53.688;10.746;2022-08-19T02:59:09;19.50;1.00
13164;DHT22;6647;53.688;10.746;2022-08-19T03:00:30;19.50;1.00
13164;DHT22;6647;53.688;10.746;2022-08-19T03:01:51;19.60;1.00
13164;DHT22;6647;53.688;10.746;2022-08-19T03:03:12;19.50;1.00
13164;DHT22;6647;53.688;10.746;2022-08-19T03:04:33;19.50;1.00
13164;DHT22;6647;53.688;10.746;2022-08-19T03:06:13;19.50;1.00
13164;DHT22;6647;53.688;10.746;2022-08-19T03:07:34;19.50;1.00
13164;DHT22;6647;53.688;10.746;2022-08-19T03:08:56;19.50;1.00
13164;DHT22;6647;53.688;10.746;2022-08-19T03:10:17;19.60;1.00
13164;DHT22;6647;53.688;10.746;2022-08-19T03:11:38;19.50;1.00
13164;DHT22;6647;53.688;10.746;2022-08-19T03:12:59;19.60;1.00
13164;DHT22;6647;53.688;10.746;2022-08-19T03:14:20;19.60;1.00
13164;DHT22;6647;53.688;10.746;2022-08-19T03:15:46;19.60;1.00
13164;DHT22;6647;53.688;10.746;2022-08-19T03:17:07;19.60;1.00
13164;DHT22;6647;53.688;10.746;2022-08-19T03:18:28;19.70;1.00
13164;DHT22;6647;53.688;10.746;2022-08-19T03:19:49;19.70;1.00
13164;DHT22;6647;53.688;10.746;2022-08-19T03:21:18;19.70;1.00
13164;DHT22;6647;53.688;10.746;2022-08-19T03:22:39;19.70;1.00
13164;DHT22;6647;53.688;10.746;2022-08-19T03:24:03;19.70;1.00
13164;DHT22;6647;53.688;10.746;2022-08-19T03:25:25;19.70;1.00
13164;DHT22;6647;53.688;10.746;2022-08-19T03:26:48;19.70;1.00
13164;DHT22;6647;53.688;10.746;2022-08-19T03:28:11;19.70;1.00
13164;DHT22;6647;53.688;10.746;2022-08-19T03:29:32;19.70;1.00
13164;DHT22;6647;53.688;10.746;2022-08-19T03:31:00;19.70;1.00
13164;DHT22;6647;53.688;10.746;2022-08-19T03:32:21;19.80;1.00
13164;DHT22;6647;53.688;10.746;2022-08-19T03:33:43;19.80;1.00
13164;DHT22;6647;53.688;10.746;2022-08-19T03:35:04;19.80;1.00
13164;DHT22;6647;53.688;10.746;2022-08-19T03:36:26;19.80;1.00
13164;DHT22;6647;53.688;10.746;2022-08-19T03:37:48;19.80;1.00
13164;DHT22;6647;53.688;10.746;2022-08-19T03:39:10;19.80;1.00
13164;DHT22;6647;53.688;10.746;2022-08-19T03:40:31;19.80;1.00
13164;DHT22;6647;53.688;10.746;2022-08-19T03:41:53;19.80;1.00
13164;DHT22;6647;53.688;10.746;2022-08-19T03:43:17;19.80;1.00
13164;DHT22;6647;53.688;10.746;2022-08-19T03:44:39;19.80;1.00
13164;DHT22;6647;53.688;10.746;2022-08-19T03:46:02;19.80;1.00
13164;DHT22;6647;53.688;10.746;2022-08-19T03:47:24;19.80;1.00
13164;DHT22;6647;53.688;10.746;2022-08-19T03:48:47;19.80;1.00
13164;DHT22;6647;53.688;10.746;2022-08-19T03:50:08;19.80;1.00
13164;DHT22;6647;53.688;10.746;2022-08-19T03:51:33;19.80;1.00
13164;DHT22;6647;53.688;10.746;2022-08-19T03:52:55;19.80;1.00
13164;DHT22;6647;53.688;10.746;2022-08-19T03:54:19;19.80;1.00
13164;DHT22;6647;53.688;10.746;2022-08-19T03:55:40;19.70;1.00
13164;DHT22;6647;53.688;10.746;2022-08-19T03:57:02;19.70;1.00
13164;DHT22;6647;53.688;10.746;2022-08-19T03:58:23;19.70;1.00
13164;DHT22;6647;53.688;10.746;2022-08-19T03:59:44;19.70;1.00
13164;DHT22;6647;53.688;10.746;2022-08-19T04:01:15;19.70;1.00
13164;DHT22;6647;53.688;10.746;2022-08-19T04:02:36;19.70;1.00
13164;DHT22;6647;53.688;10.746;2022-08-19T04:03:58;19.70;1.00
13164;DHT22;6647;53.688;10.746;2022-08-19T04:05:19;19.70;1.00
13164;DHT22;6647;53.688;10.746;2022-08-19T04:06:41;19.70;1.00
13164;DHT22;6647;53.688;10.746;2022-08-19T04:08:04;19.70;1.00
13164;DHT22;6647;53.688;10.746;2022-08-19T04:09:26;19.70;1.00
13164;DHT22;6647;53.688;10.746;2022-08-19T04:10:48;19.70;1.00
13164;DHT22;6647;53.688;10.746;2022-08-19T04:12:09;19.70;1.00
13164;DHT22;6647;53.688;10.746;2022-08-19T04:13:30;19.70;1.00
13164;DHT22;6647;53.688;10.746;2022-08-19T04:14:51;19.70;1.00
13164;DHT22;6647;53.688;10.746;2022-08-19T04:16:12;19.70;1.00
13164;DHT22;6647;53.688;10.746;2022-08-19T04:17:33;19.60;1.00
13164;DHT22;6647;53.688;10.746;2022-08-19T04:18:56;19.70;1.00
13164;DHT22;6647;53.688;10.746;2022-08-19T04:20:17;19.60;1.00
13164;DHT22;6647;53.688;10.746;2022-08-19T04:21:38;19.60;1.00
13164;DHT22;6647;53.688;10.746;2022-08-19T04:22:59;19.70;1.00
13164;DHT22;6647;53.688;10.746;2022-08-19T04:24:21;19.70;1.00
13164;DHT22;6647;53.688;10.746;2022-08-19T04:25:43;19.70;1.00
13164;DHT22;6647;53.688;10.746;2022-08-19T04:27:05;19.70;1.00
13164;DHT22;6647;53.688;10.746;2022-08-19T04:28:26;19.60;1.00
13164;DHT22;6647;53.688;10.746;2022-08-19T04:29:47;19.60;1.00
13164;DHT22;6647;53.688;10.746;2022-08-19T04:31:14;19.50;1.00
13164;DHT22;6647;53.688;10.746;2022-08-19T04:32:35;19.50;1.00
13164;DHT22;6647;53.688;10.746;2022-08-19T04:33:59;19.50;1.00
13164;DHT22;6647;53.688;10.746;2022-08-19T04:35:20;19.50;1.00
13164;DHT22;6647;53.688;10.746;2022-08-19T04:36:42;19.50;1.00
13164;DHT22;6647;53.688;10.746;2022-08-19T04:38:05;19.50;1.00
13164;DHT22;6647;53.688;10.746;2022-08-19T04:39:29;19.50;1.00
13164;DHT22;6647;53.688;10.746;2022-08-19T04:41:08;19.50;1.00
13164;DHT22;6647;53.688;10.746;2022-08-19T04:42:48;19.50;1.00
13164;DHT22;6647;53.688;10.746;2022-08-19T04:44:10;19.60;1.00
13164;DHT22;6647;53.688;10.746;2022-08-19T04:45:30;19.60;1.00
13164;DHT22;6647;53.688;10.746;2022-08-19T04:46:52;19.60;1.00
13164;DHT22;6647;53.688;10.746;2022-08-19T04:48:13;19.50;1.00
13164;DHT22;6647;53.688;10.746;2022-08-19T04:49:33;19.50;1.00
13164;DHT22;6647;53.688;10.746;2022-08-19T04:50:56;19.50;1.00
13164;DHT22;6647;53.688;10.746;2022-08-19T04:52:20;19.50;1.00
13164;DHT22;6647;53.688;10.746;2022-08-19T04:53:41;19.50;1.00
13164;DHT22;6647;53.688;10.746;2022-08-19T04:55:03;19.50;1.00
13164;DHT22;6647;53.688;10.746;2022-08-19T04:56:26;19.50;1.00
13164;DHT22;6647;53.688;10.746;2022-08-19T04:57:47;19.50;1.00
13164;DHT22;6647;53.688;10.746;2022-08-19T04:59:09;19.50;1.00
13164;DHT22;6647;53.688;10.746;2022-08-19T05:00:31;19.50;1.00
13164;DHT22;6647;53.688;10.746;2022-08-19T05:01:51;19.50;1.00
13164;DHT22;6647;53.688;10.746;2022-08-19T05:03:12;19.50;1.00
13164;DHT22;6647;53.688;10.746;2022-08-19T05:04:37;19.40;1.00
13164;DHT22;6647;53.688;10.746;2022-08-19T05:06:07;19.40;1.00
13164;DHT22;6647;53.688;10.746;2022-08-19T05:07:28;19.40;1.00
13164;DHT22;6647;53.688;10.746;2022-08-19T05:08:50;19.40;1.00
13164;DHT22;6647;53.688;10.746;2022-08-19T05:10:11;19.40;1.00
13164;DHT22;6647;53.688;10.746;2022-08-19T05:11:35;19.40;1.00
13164;DHT22;6647;53.688;10.746;2022-08-19T05:12:59;19.40;1.00
13164;DHT22;6647;53.688;10.746;2022-08-19T05:14:19;19.40;1.00
13164;DHT22;6647;53.688;10.746;2022-08-19T05:15:42;19.40;1.00
13164;DHT22;6647;53.688;10.746;2022-08-19T05:17:03;19.40;1.00
13164;DHT22;6647;53.688;10.746;2022-08-19T05:18:24;19.40;1.00
13164;DHT22;6647;53.688;10.746;2022-08-19T05:20:05;19.30;1.00
13164;DHT22;6647;53.688;10.746;2022-08-19T05:21:45;19.40;1.00
13164;DHT22;6647;53.688;10.746;2022-08-19T05:23:25;19.40;1.00
13164;DHT22;6647;53.688;10.746;2022-08-19T05:24:46;19.40;1.00
13164;DHT22;6647;53.688;10.746;2022-08-19T05:26:07;19.40;1.00
13164;DHT22;6647;53.688;10.746;2022-08-19T05:27:29;19.40;1.00
13164;DHT22;6647;53.688;10.746;2022-08-19T05:28:50;19.30;1.00
13164;DHT22;6647;53.688;10.746;2022-08-19T05:30:11;19.30;1.00
13164;DHT22;6647;53.688;10.746;2022-08-19T05:31:33;19.30;1.00
13164;DHT22;6647;53.688;10.746;2022-08-19T05:32:54;19.30;1.00
13164;DHT22;6647;53.688;10.746;2022-08-19T05:34:17;19.30;1.00
13164;DHT22;6647;53.688;10.746;2022-08-19T05:35:41;19.20;1.00
13164;DHT22;6647;53.688;10.746;2022-08-19T05:37:03;19.20;1.00
13164;DHT22;6647;53.688;10.746;2022-08-19T05:38:25;19.20;1.00
13164;DHT22;6647;53.688;10.746;2022-08-19T05:39:48;19.20;1.00
13164;DHT22;6647;53.688;10.746;2022-08-19T05:41:11;19.20;1.00
13164;DHT22;6647;53.688;10.746;2022-08-19T05:42:32;19.20;1.00
13164;DHT22;6647;53.688;10.746;2022-08-19T05:43:53;19.20;1.00
13164;DHT22;6647;53.688;10.746;2022-08-19T05:45:14;19.20;1.00
13164;DHT22;6647;53.688;10.746;2022-08-19T05:46:36;19.20;1.00
13164;DHT22;6647;53.688;10.746;2022-08-19T05:47:58;19.20;1.00
13164;DHT22;6647;53.688;10.746;2022-08-19T05:49:21;19.30;1.00
13164;DHT22;6647;53.688;10.746;2022-08-19T05:50:42;19.30;1.00
13164;DHT22;6647;53.688;10.746;2022-08-19T05:52:07;19.30;1.00
13164;DHT22;6647;53.688;10.746;2022-08-19T05:53:28;19.30;1.00
13164;DHT22;6647;53.688;10.746;2022-08-19T05:54:49;19.30;1.00
13164;DHT22;6647;53.688;10.746;2022-08-19T05:56:14;19.40;1.00
13164;DHT22;6647;53.688;10.746;2022-08-19T05:57:36;19.40;1.00
13164;DHT22;6647;53.688;10.746;2022-08-19T05:58:58;19.40;1.00
13164;DHT22;6647;53.688;10.746;2022-08-19T06:00:19;19.40;1.00
13164;DHT22;6647;53.688;10.746;2022-08-19T06:01:43;19.40;1.00
13164;DHT22;6647;53.688;10.746;2022-08-19T06:03:05;19.40;1.00
13164;DHT22;6647;53.688;10.746;2022-08-19T06:04:26;19.40;1.00
13164;DHT22;6647;53.688;10.746;2022-08-19T06:05:47;19.40;1.00
13164;DHT22;6647;53.688;10.746;2022-08-19T06:07:08;19.40;1.00
13164;DHT22;6647;53.688;10.746;2022-08-19T06:08:29;19.40;1.00
13164;DHT22;6647;53.688;10.746;2022-08-19T06:09:50;19.40;1.00
13164;DHT22;6647;53.688;10.746;2022-08-19T06:11:15;19.40;1.00
13164;DHT22;6647;53.688;10.746;2022-08-19T06:12:37;19.40;1.00
13164;DHT22;6647;53.688;10.746;2022-08-19T06:14:03;19.40;1.00
13164;DHT22;6647;53.688;10.746;2022-08-19T06:15:24;19.50;1.00
13164;DHT22;6647;53.688;10.746;2022-08-19T06:16:46;19.40;1.00
13164;DHT22;6647;53.688;10.746;2022-08-19T06:18:07;19.40;1.00
13164;DHT22;6647;53.688;10.746;2022-08-19T06:19:29;19.40;1.00
13164;DHT22;6647;53.688;10.746;2022-08-19T06:20:50;19.40;1.00
13164;DHT22;6647;53.688;10.746;2022-08-19T06:22:11;19.40;1.00
13164;DHT22;6647;53.688;10.746;2022-08-19T06:23:33;19.40;1.00
13164;DHT22;6647;53.688;10.746;2022-08-19T06:24:55;19.40;1.00
13164;DHT22;6647;53.688;10.746;2022-08-19T06:26:18;19.40;1.00
13164;DHT22;6647;53.688;10.746;2022-08-19T06:27:39;19.40;1.00
13164;DHT22;6647;53.688;10.746;2022-08-19T06:29:01;19.40;1.00
13164;DHT22;6647;53.688;10.746;2022-08-19T06:30:22;19.40;1.00
13164;DHT22;6647;53.688;10.746;2022-08-19T06:31:45;19.40;1.00
13164;DHT22;6647;53.688;10.746;2022-08-19T06:33:06;19.40;1.00
13164;DHT22;6647;53.688;10.746;2022-08-19T06:34:29;19.40;1.00
13164;DHT22;6647;53.688;10.746;2022-08-19T06:35:50;19.40;1.00
13164;DHT22;6647;53.688;10.746;2022-08-19T06:37:11;19.40;1.00
13164;DHT22;6647;53.688;10.746;2022-08-19T06:38:32;19.40;1.00
13164;DHT22;6647;53.688;10.746;2022-08-19T06:39:56;19.40;1.00
13164;DHT22;6647;53.688;10.746;2022-08-19T06:41:17;19.40;1.00
13164;DHT22;6647;53.688;10.746;2022-08-19T06:42:38;19.40;1.00
13164;DHT22;6647;53.688;10.746;2022-08-19T06:43:59;19.40;1.00
13164;DHT22;6647;53.688;10.746;2022-08-19T06:45:20;19.30;1.00
13164;DHT22;6647;53.688;10.746;2022-08-19T06:46:42;19.40;1.00
13164;DHT22;6647;53.688;10.746;2022-08-19T06:48:03;19.30;1.00
13164;DHT22;6647;53.688;10.746;2022-08-19T06:49:24;19.30;1.00
13164;DHT22;6647;53.688;10.746;2022-08-19T06:50:45;19.30;1.00
13164;DHT22;6647;53.688;10.746;2022-08-19T06:52:08;19.30;1.00
13164;DHT22;6647;53.688;10.746;2022-08-19T06:53:33;19.30;1.00
13164;DHT22;6647;53.688;10.746;2022-08-19T06:54:54;19.30;1.00
13164;DHT22;6647;53.688;10.746;2022-08-19T06:56:25;19.30;1.00
13164;DHT22;6647;53.688;10.746;2022-08-19T06:57:51;19.40;1.00
13164;DHT22;6647;53.688;10.746;2022-08-19T06:59:19;19.40;1.00
13164;DHT22;6647;53.688;10.746;2022-08-19T07:00:40;19.30;1.00
13164;DHT22;6647;53.688;10.746;2022-08-19T07:02:04;19.30;1.00
13164;DHT22;6647;53.688;10.746;2022-08-19T07:03:27;19.30;1.00
13164;DHT22;6647;53.688;10.746;2022-08-19T07:04:48;19.30;1.00
13164;DHT22;6647;53.688;10.746;2022-08-19T07:06:15;19.30;1.00
13164;DHT22;6647;53.688;10.746;2022-08-19T07:07:38;19.40;1.00
13164;DHT22;6647;53.688;10.746;2022-08-19T07:08:59;19.40;1.00
13164;DHT22;6647;53.688;10.746;2022-08-19T07:10:20;19.40;1.00
13164;DHT22;6647;53.688;10.746;2022-08-19T07:11:52;19.40;1.00
13164;DHT22;6647;53.688;10.746;2022-08-19T07:13:13;19.40;1.00
13164;DHT22;6647;53.688;10.746;2022-08-19T07:14:35;19.40;1.00
13164;DHT22;6647;53.688;10.746;2022-08-19T07:15:58;19.30;1.00
13164;DHT22;6647;53.688;10.746;2022-08-19T07:17:18;19.30;8.90
13164;DHT22;6647;53.688;10.746;2022-08-19T07:18:41;19.30;14.00
13164;DHT22;6647;53.688;10.746;2022-08-19T07:20:02;19.30;21.50
13164;DHT22;6647;53.688;10.746;2022-08-19T07:21:25;19.40;14.90
13164;DHT22;6647;53.688;10.746;2022-08-19T07:22:49;19.40;16.90
13164;DHT22;6647;53.688;10.746;2022-08-19T07:24:10;19.30;21.00
13164;DHT22;6647;53.688;10.746;2022-08-19T07:25:32;19.40;21.80
13164;DHT22;6647;53.688;10.746;2022-08-19T07:26:55;19.40;17.20
13164;DHT22;6647;53.688;10.746;2022-08-19T07:28:17;19.40;15.70
13164;DHT22;6647;53.688;10.746;2022-08-19T07:29:39;19.40;13.70
13164;DHT22;6647;53.688;10.746;2022-08-19T07:31:00;19.50;12.70
13164;DHT22;6647;53.688;10.746;2022-08-19T07:32:22;19.50;11.90
13164;DHT22;6647;53.688;10.746;2022-08-19T07:33:44;19.50;12.20
13164;DHT22;6647;53.688;10.746;2022-08-19T07:35:06;19.50;13.40
13164;DHT22;6647;53.688;10.746;2022-08-19T07:36:28;19.50;18.70
13164;DHT22;6647;53.688;10.746;2022-08-19T07:37:52;19.50;13.90
13164;DHT22;6647;53.688;10.746;2022-08-19T07:39:25;19.50;14.50
13164;DHT22;6647;53.688;10.746;2022-08-19T07:40:46;19.50;12.20
13164;DHT22;6647;53.688;10.746;2022-08-19T07:42:09;19.50;11.00
13164;DHT22;6647;53.688;10.746;2022-08-19T07:43:30;19.50;13.30
13164;DHT22;6647;53.688;10.746;2022-08-19T07:44:52;19.60;5.20
13164;DHT22;6647;53.688;10.746;2022-08-19T07:46:13;19.60;2.90
13164;DHT22;6647;53.688;10.746;2022-08-19T07:47:34;19.60;1.50
13164;DHT22;6647;53.688;10.746;2022-08-19T07:48:55;19.60;1.00
13164;DHT22;6647;53.688;10.746;2022-08-19T07:50:17;19.60;1.00
13164;DHT22;6647;53.688;10.746;2022-08-19T07:51:39;19.60;1.00
13164;DHT22;6647;53.688;10.746;2022-08-19T07:53:00;19.60;1.00
13164;DHT22;6647;53.688;10.746;2022-08-19T07:54:22;19.60;1.00
13164;DHT22;6647;53.688;10.746;2022-08-19T07:55:43;19.60;1.00
13164;DHT22;6647;53.688;10.746;2022-08-19T07:57:06;19.60;1.00
13164;DHT22;6647;53.688;10.746;2022-08-19T07:58:27;19.60;5.60
13164;DHT22;6647;53.688;10.746;2022-08-19T07:59:48;19.60;1.00
13164;DHT22;6647;53.688;10.746;2022-08-19T08:01:14;19.60;1.90
13164;DHT22;6647;53.688;10.746;2022-08-19T08:02:36;19.60;1.20
13164;DHT22;6647;53.688;10.746;2022-08-19T08:03:58;19.60;1.00
13164;DHT22;6647;53.688;10.746;2022-08-19T08:05:37;19.60;1.00
13164;DHT22;6647;53.688;10.746;2022-08-19T08:07:17;19.70;1.00
13164;DHT22;6647;53.688;10.746;2022-08-19T08:08:56;19.60;1.00
13164;DHT22;6647;53.688;10.746;2022-08-19T08:10:32;19.60;1.00
13164;DHT22;6647;53.688;10.746;2022-08-19T08:11:56;19.60;1.00
13164;DHT22;6647;53.688;10.746;2022-08-19T08:13:17;19.60;1.00
13164;DHT22;6647;53.688;10.746;2022-08-19T08:14:50;19.60;1.00
13164;DHT22;6647;53.688;10.746;2022-08-19T08:16:11;19.60;1.00
13164;DHT22;6647;53.688;10.746;2022-08-19T08:17:32;19.70;1.00
13164;DHT22;6647;53.688;10.746;2022-08-19T08:18:53;19.70;1.00
13164;DHT22;6647;53.688;10.746;2022-08-19T08:20:14;19.60;1.00
13164;DHT22;6647;53.688;10.746;2022-08-19T08:21:35;19.60;1.00
13164;DHT22;6647;53.688;10.746;2022-08-19T08:22:56;19.60;1.00
13164;DHT22;6647;53.688;10.746;2022-08-19T08:24:36;19.70;1.30
13164;DHT22;6647;53.688;10.746;2022-08-19T08:25:57;19.70;3.70
13164;DHT22;6647;53.688;10.746;2022-08-19T08:27:18;19.60;4.80
13164;DHT22;6647;53.688;10.746;2022-08-19T08:28:39;19.60;9.00
13164;DHT22;6647;53.688;10.746;2022-08-19T08:30:00;19.60;12.80
13164;DHT22;6647;53.688;10.746;2022-08-19T08:31:21;19.60;13.80
13164;DHT22;6647;53.688;10.746;2022-08-19T08:32:42;19.60;15.00
13164;DHT22;6647;53.688;10.746;2022-08-19T08:34:03;19.70;18.30
13164;DHT22;6647;53.688;10.746;2022-08-19T08:35:24;19.70;18.50
13164;DHT22;6647;53.688;10.746;2022-08-19T08:36:46;19.70;18.60
13164;DHT22;6647;53.688;10.746;2022-08-19T08:38:07;19.70;18.60
13164;DHT22;6647;53.688;10.746;2022-08-19T08:39:29;19.70;19.90
13164;DHT22;6647;53.688;10.746;2022-08-19T08:41:01;19.70;24.70
13164;DHT22;6647;53.688;10.746;2022-08-19T08:42:31;19.70;31.80
13164;DHT22;6647;53.688;10.746;2022-08-19T08:43:54;19.60;37.20
13164;DHT22;6647;53.688;10.746;2022-08-19T08:45:17;19.60;50.50
13164;DHT22;6647;53.688;10.746;2022-08-19T08:46:44;19.60;53.40
13164;DHT22;6647;53.688;10.746;2022-08-19T08:50:13;19.70;63.50
13164;DHT22;6647;53.688;10.746;2022-08-19T08:51:44;19.60;74.00
13164;DHT22;6647;53.688;10.746;2022-08-19T08:53:06;19.70;72.90
13164;DHT22;6647;53.688;10.746;2022-08-19T08:54:33;19.70;71.70